createdAt,value
2022-12-04T00:03:39.824Z,98.41
2022-12-04T00:08:43.237Z,97.67
2022-12-04T00:13:47.799Z,97.27
2022-12-04T00:18:56.160Z,97.23
2022-12-04T00:24:00.342Z,95.89
2022-12-04T00:29:04.418Z,96.50
2022-12-04T00:34:15.897Z,95.96
2022-12-04T00:39:19.775Z,96.75
2022-12-04T00:44:21.452Z,96.35
2022-12-04T00:49:26.741Z,96.54
2022-12-04T00:54:31.618Z,96.09
2022-12-04T00:59:37.721Z,95.66
2022-12-04T01:04:39.383Z,96.57
2022-12-04T01:09:41.087Z,96.07
2022-12-04T01:14:42.733Z,95.87
2022-12-04T01:19:45.256Z,95.23
2022-12-04T01:24:47.088Z,95.41
2022-12-04T01:29:53.642Z,96.08
2022-12-04T01:34:55.466Z,96.30
2022-12-04T01:39:59.873Z,96.17
2022-12-04T01:45:28.750Z,96.07
2022-12-04T01:50:33.645Z,95.42
2022-12-04T01:55:37.862Z,95.37
2022-12-04T02:00:42.610Z,95.39
2022-12-04T02:06:03.341Z,95.20
2022-12-04T02:11:32.118Z,94.57
2022-12-04T02:16:40.698Z,94.79
2022-12-04T02:21:46.140Z,95.12
2022-12-04T02:27:00.106Z,95.49
2022-12-04T02:32:27.237Z,95.22
2022-12-04T02:37:33.204Z,94.74
2022-12-04T02:42:45.138Z,95.24
2022-12-04T02:47:47.857Z,95.56
2022-12-04T02:52:53.622Z,94.89
2022-12-04T02:58:01.870Z,95.29
2022-12-04T03:03:11.981Z,94.82
2022-12-04T03:08:16.711Z,94.82
2022-12-04T03:13:27.386Z,96.00
2022-12-04T03:18:33.970Z,95.24
2022-12-04T03:23:44.651Z,96.36
2022-12-04T03:29:11.413Z,95.74
2022-12-04T03:34:19.979Z,95.64
2022-12-04T03:39:36.374Z,95.77
2022-12-04T03:44:47.566Z,95.99
2022-12-04T03:49:57.518Z,96.73
2022-12-04T03:55:07.430Z,96.72
2022-12-04T04:00:23.769Z,96.45
2022-12-04T04:05:27.456Z,96.81
2022-12-04T04:10:31.325Z,96.78
2022-12-04T04:16:03.943Z,97.25
2022-12-04T04:21:24.811Z,96.82
2022-12-04T04:26:34.295Z,97.46
2022-12-04T04:31:56.548Z,97.08
2022-12-04T04:37:15.088Z,96.80
2022-12-04T04:42:37.644Z,97.22
2022-12-04T04:48:00.781Z,96.97
2022-12-04T04:53:09.132Z,97.51
2022-12-04T04:58:16.185Z,97.85
2022-12-04T05:03:23.850Z,97.60
2022-12-04T05:08:26.737Z,98.60
2022-12-04T05:13:31.677Z,98.07
2022-12-04T05:18:38.134Z,98.77
2022-12-04T05:23:46.671Z,99.09
2022-12-04T05:28:48.364Z,99.28
2022-12-04T05:33:50.020Z,98.92
2022-12-04T05:38:54.140Z,99.90
2022-12-04T05:43:58.086Z,99.85
2022-12-04T05:48:59.760Z,100.00
2022-12-04T05:54:04.792Z,100.00
2022-12-04T05:59:08.964Z,100.00
2022-12-04T06:04:11.508Z,100.00
2022-12-04T06:09:15.394Z,100.00
2022-12-04T06:14:18.018Z,100.00
2022-12-04T06:19:21.297Z,100.00
2022-12-04T06:24:24.608Z,100.00
2022-12-04T06:29:28.717Z,100.00
2022-12-04T06:34:30.468Z,100.00
2022-12-04T06:39:38.102Z,100.00
2022-12-04T06:44:43.311Z,100.00
2022-12-04T06:49:50.243Z,100.00
2022-12-04T06:54:54.243Z,100.00
2022-12-04T06:59:56.074Z,100.00
2022-12-04T07:04:59.196Z,100.00
2022-12-04T07:10:03.893Z,100.00
2022-12-04T07:15:06.208Z,100.00
2022-12-04T07:20:08.408Z,100.00
2022-12-04T07:25:10.111Z,100.00
2022-12-04T07:30:15.970Z,100.00
2022-12-04T07:35:20.516Z,100.00
2022-12-04T07:40:22.178Z,100.00
2022-12-04T07:45:26.738Z,100.00
2022-12-04T07:50:30.560Z,100.00
2022-12-04T07:55:35.080Z,100.00
2022-12-04T08:00:44.359Z,100.00
2022-12-04T08:05:47.095Z,100.00
2022-12-04T08:10:51.793Z,100.00
2022-12-04T08:15:56.630Z,100.00
2022-12-04T08:21:12.133Z,100.00
2022-12-04T08:26:15.919Z,100.00
2022-12-04T08:31:23.910Z,100.00
2022-12-04T08:36:28.249Z,100.00
2022-12-04T08:41:30.314Z,100.00
2022-12-04T08:46:34.589Z,100.00
2022-12-04T08:51:36.715Z,100.00
2022-12-04T08:56:40.803Z,100.00
2022-12-04T09:01:45.988Z,100.00
2022-12-04T09:06:50.320Z,100.00
2022-12-04T09:11:52.146Z,100.00
2022-12-04T09:16:56.373Z,100.00
2022-12-04T09:22:00.421Z,100.00
2022-12-04T09:27:02.525Z,100.00
2022-12-04T09:32:11.768Z,100.00
2022-12-04T09:37:13.986Z,100.00
2022-12-04T09:42:30.050Z,100.00
2022-12-04T09:47:35.806Z,100.00
2022-12-04T09:52:39.366Z,100.00
2022-12-04T09:57:44.878Z,100.00
2022-12-04T10:02:56.542Z,100.00
2022-12-04T10:08:11.151Z,100.00
2022-12-04T10:13:30.350Z,100.00
2022-12-04T10:18:47.413Z,100.00
2022-12-04T10:24:21.968Z,100.00
2022-12-04T10:29:33.587Z,100.00
2022-12-04T10:34:35.332Z,100.00
2022-12-04T10:39:51.315Z,100.00
2022-12-04T10:44:53.549Z,100.00
2022-12-04T10:50:12.175Z,100.00
2022-12-04T10:55:48.917Z,99.76
2022-12-04T11:01:15.643Z,99.82
2022-12-04T11:06:27.051Z,99.27
2022-12-04T11:11:33.734Z,99.36
2022-12-04T11:16:44.596Z,99.21
2022-12-04T11:21:49.056Z,99.09
2022-12-04T11:27:01.205Z,98.82
2022-12-04T11:32:13.753Z,98.84
2022-12-04T11:37:26.203Z,98.89
2022-12-04T11:42:31.333Z,98.83
2022-12-04T11:47:33.828Z,98.50
2022-12-04T11:53:11.577Z,98.30
2022-12-04T11:58:27.463Z,98.41
2022-12-04T12:03:57.120Z,97.54
2022-12-04T12:09:27.071Z,97.90
2022-12-04T12:14:52.976Z,97.91
2022-12-04T12:20:11.115Z,98.33
2022-12-04T12:25:22.373Z,98.01
2022-12-04T12:30:24.735Z,97.72
2022-12-04T12:36:02.983Z,98.12
2022-12-04T12:41:10.797Z,97.91
2022-12-04T12:46:33.742Z,97.97
2022-12-04T12:51:44.083Z,98.15
2022-12-04T12:56:50.860Z,98.25
2022-12-04T13:02:06.710Z,98.48
2022-12-04T13:07:20.731Z,98.90
2022-12-04T13:12:28.804Z,98.80
2022-12-04T13:17:40.425Z,99.28
2022-12-04T13:22:58.759Z,99.43
2022-12-04T13:28:32.520Z,99.32
2022-12-04T13:34:11.562Z,99.74
2022-12-04T13:39:18.354Z,99.73
2022-12-04T13:44:27.155Z,100.00
2022-12-04T13:49:37.202Z,100.00
2022-12-04T13:54:41.232Z,100.00
2022-12-04T13:59:48.841Z,100.00
2022-12-04T14:04:55.513Z,100.00
2022-12-04T14:09:59.643Z,100.00
2022-12-04T14:15:08.346Z,100.00
2022-12-04T14:20:26.170Z,100.00
2022-12-04T14:25:42.257Z,100.00
2022-12-04T14:30:46.520Z,100.00
2022-12-04T14:35:58.951Z,100.00
2022-12-04T14:41:01.778Z,100.00
2022-12-04T14:46:28.377Z,100.00
2022-12-04T14:51:34.230Z,100.00
2022-12-04T14:56:47.522Z,100.00
2022-12-04T15:01:55.108Z,100.00
2022-12-04T15:07:00.335Z,100.00
2022-12-04T15:12:34.144Z,100.00
2022-12-04T15:17:40.014Z,100.00
2022-12-04T15:22:43.928Z,100.00
2022-12-04T15:27:49.945Z,100.00
2022-12-04T15:32:53.141Z,100.00
2022-12-04T15:37:55.993Z,100.00
2022-12-04T15:43:17.024Z,100.00
2022-12-04T15:48:26.820Z,100.00
2022-12-04T15:53:32.103Z,100.00
2022-12-04T15:58:35.896Z,100.00
2022-12-04T16:03:41.685Z,100.00
2022-12-04T16:08:48.152Z,100.00
2022-12-04T16:14:07.890Z,100.00
2022-12-04T16:19:17.412Z,100.00
2022-12-04T16:24:22.388Z,100.00
2022-12-04T16:29:26.727Z,100.00
2022-12-04T16:34:28.396Z,100.00
2022-12-04T16:39:38.252Z,100.00
2022-12-04T16:44:42.866Z,100.00
2022-12-04T16:49:51.822Z,100.00
2022-12-04T16:54:54.676Z,100.00
2022-12-04T17:00:02.061Z,100.00
2022-12-04T17:05:06.284Z,100.00
2022-12-04T17:10:12.881Z,100.00
2022-12-04T17:15:22.461Z,100.00
2022-12-04T17:20:24.389Z,100.00
2022-12-04T17:25:28.537Z,100.00
2022-12-04T17:30:35.654Z,100.00
2022-12-04T17:35:43.755Z,100.00
2022-12-04T17:40:48.982Z,100.00
2022-12-04T17:45:50.691Z,100.00
2022-12-04T17:51:12.886Z,100.00
2022-12-04T17:56:21.883Z,100.00
2022-12-04T18:01:29.263Z,100.00
2022-12-04T18:06:34.950Z,100.00
2022-12-04T18:11:38.137Z,100.00
2022-12-04T18:16:45.241Z,100.00
2022-12-04T18:21:54.015Z,100.00
2022-12-04T18:27:00.496Z,100.00
2022-12-04T18:32:02.285Z,100.00
2022-12-04T18:37:04.587Z,100.00
2022-12-04T18:42:08.785Z,100.00
2022-12-04T18:47:12.847Z,100.00
2022-12-04T18:52:16.874Z,100.00
2022-12-04T18:57:19.116Z,100.00
2022-12-04T19:02:20.875Z,100.00
2022-12-04T19:07:26.567Z,100.00
2022-12-04T19:12:30.825Z,100.00
2022-12-04T19:17:34.979Z,100.00
2022-12-04T19:22:37.215Z,100.00
2022-12-04T19:27:41.205Z,100.00
2022-12-04T19:32:45.894Z,100.00
2022-12-04T19:37:52.840Z,100.00
2022-12-04T19:43:02.520Z,100.00
2022-12-04T19:48:05.814Z,100.00
2022-12-04T19:53:07.548Z,100.00
2022-12-04T19:58:14.369Z,100.00
2022-12-04T20:03:16.156Z,100.00
2022-12-04T20:08:17.889Z,100.00
2022-12-04T20:13:24.514Z,100.00
2022-12-04T20:18:28.539Z,100.00
2022-12-04T20:23:30.348Z,100.00
2022-12-04T20:28:34.528Z,100.00
2022-12-04T20:33:38.531Z,100.00
2022-12-04T20:38:45.935Z,100.00
2022-12-04T20:43:50.846Z,100.00
2022-12-04T20:48:54.647Z,100.00
2022-12-04T20:54:02.428Z,100.00
2022-12-04T20:59:11.384Z,100.00
2022-12-04T21:04:13.397Z,100.00
2022-12-04T21:09:23.444Z,100.00
2022-12-04T21:14:49.981Z,100.00
2022-12-04T21:20:01.558Z,100.00
2022-12-04T21:25:12.936Z,100.00
2022-12-04T21:30:16.943Z,100.00
2022-12-04T21:35:18.698Z,100.00
2022-12-04T21:40:20.449Z,100.00
2022-12-04T21:45:24.371Z,100.00
2022-12-04T21:50:30.874Z,100.00
2022-12-04T21:55:39.799Z,100.00
2022-12-04T22:00:41.456Z,100.00
2022-12-04T22:05:47.679Z,100.00
2022-12-04T22:10:52.471Z,100.00
2022-12-04T22:15:54.618Z,100.00
2022-12-04T22:20:56.626Z,100.00
2022-12-04T22:26:11.043Z,100.00
2022-12-04T22:31:18.533Z,100.00
2022-12-04T22:36:27.093Z,100.00
2022-12-04T22:41:30.459Z,100.00
2022-12-04T22:46:32.640Z,100.00
2022-12-04T22:51:34.344Z,100.00
2022-12-04T22:56:37.581Z,100.00
2022-12-04T23:01:41.529Z,100.00
2022-12-04T23:06:45.529Z,100.00
2022-12-04T23:11:54.634Z,100.00
2022-12-04T23:17:01.513Z,100.00
2022-12-04T23:22:09.284Z,100.00
2022-12-04T23:27:13.018Z,100.00
2022-12-04T23:32:14.709Z,100.00
2022-12-04T23:37:18.828Z,100.00
2022-12-04T23:42:20.525Z,100.00
2022-12-04T23:47:26.768Z,100.00
2022-12-04T23:52:29.563Z,100.00
2022-12-04T23:57:34.741Z,100.00
